createdAt,value
2022-09-11T00:01:14.389Z,9.93
2022-09-11T00:03:45.059Z,9.17
2022-09-11T00:06:27.421Z,9.73
2022-09-11T00:09:00.689Z,10.27
2022-09-11T00:11:30.505Z,9.35
2022-09-11T00:13:59.169Z,10.73
2022-09-11T00:16:28.796Z,10.82
2022-09-11T00:19:00.149Z,10.20
2022-09-11T00:21:29.435Z,9.50
2022-09-11T00:23:58.127Z,9.90
2022-09-11T00:26:26.407Z,9.90
2022-09-11T00:28:55.313Z,10.52
2022-09-11T00:31:25.796Z,10.50
2022-09-11T00:33:53.968Z,10.07
2022-09-11T00:36:24.509Z,10.13
2022-09-11T00:38:52.589Z,9.85
2022-09-11T00:41:22.632Z,9.57
2022-09-11T00:44:00.675Z,9.93
2022-09-11T00:46:35.631Z,9.50
2022-09-11T00:49:07.948Z,8.93
2022-09-11T00:51:41.106Z,10.37
2022-09-11T00:54:13.573Z,11.33
2022-09-11T00:56:44.337Z,10.47
2022-09-11T00:59:13.569Z,10.00
2022-09-11T01:01:42.003Z,11.53
2022-09-11T01:04:10.566Z,10.83
2022-09-11T01:06:40.763Z,11.23
2022-09-11T01:09:08.673Z,11.67
2022-09-11T01:11:54.639Z,11.23
2022-09-11T01:14:34.664Z,11.77
2022-09-11T01:17:15.354Z,11.13
2022-09-11T01:20:05.596Z,11.97
2022-09-11T01:23:03.024Z,12.93
2022-09-11T01:25:45.205Z,12.97
2022-09-11T01:28:17.786Z,15.60
2022-09-11T01:30:51.153Z,15.20
2022-09-11T01:33:28.287Z,15.30
2022-09-11T01:36:03.738Z,15.23
2022-09-11T01:38:37.797Z,15.63
2022-09-11T01:41:09.783Z,15.27
2022-09-11T01:43:43.283Z,16.27
2022-09-11T01:46:17.334Z,16.50
2022-09-11T01:48:51.049Z,16.00
2022-09-11T01:51:24.240Z,16.87
2022-09-11T01:53:54.819Z,16.53
2022-09-11T01:56:28.011Z,17.40
2022-09-11T01:59:01.857Z,16.93
2022-09-11T02:01:34.084Z,16.37
2022-09-11T02:04:07.820Z,15.90
2022-09-11T02:06:40.851Z,15.97
2022-09-11T02:09:12.326Z,15.90
2022-09-11T02:11:42.666Z,15.73
2022-09-11T02:14:21.217Z,16.77
2022-09-11T02:16:51.934Z,16.13
2022-09-11T02:19:21.344Z,16.30
2022-09-11T02:21:51.018Z,15.83
2022-09-11T02:24:20.876Z,16.23
2022-09-11T02:26:52.672Z,16.47
2022-09-11T02:29:22.692Z,17.03
2022-09-11T02:31:52.205Z,17.90
2022-09-11T02:34:27.077Z,15.30
2022-09-11T02:37:09.332Z,13.83
2022-09-11T02:40:01.265Z,14.93
2022-09-11T02:42:39.537Z,13.97
2022-09-11T02:45:20.044Z,16.00
2022-09-11T02:47:59.107Z,17.20
2022-09-11T02:50:35.201Z,18.43
2022-09-11T02:53:08.498Z,17.07
2022-09-11T02:55:50.942Z,18.67
2022-09-11T02:58:26.897Z,18.63
2022-09-11T03:00:58.820Z,19.10
2022-09-11T03:03:26.913Z,21.37
2022-09-11T03:05:55.076Z,22.37
2022-09-11T03:08:22.924Z,21.10
2022-09-11T03:10:50.789Z,19.97
2022-09-11T03:13:18.556Z,21.37
2022-09-11T03:15:46.580Z,21.60
2022-09-11T03:18:15.856Z,22.13
2022-09-11T03:20:47.019Z,20.77
2022-09-11T03:23:15.095Z,21.50
2022-09-11T03:25:42.888Z,21.10
2022-09-11T03:28:10.756Z,20.50
2022-09-11T03:30:38.615Z,20.93
2022-09-11T03:33:06.468Z,21.60
2022-09-11T03:35:36.509Z,21.50
2022-09-11T03:38:04.310Z,21.30
2022-09-11T03:40:32.104Z,20.50
2022-09-11T03:43:00.028Z,22.03
2022-09-11T03:45:27.994Z,21.93
2022-09-11T03:47:55.819Z,22.37
2022-09-11T03:50:23.851Z,22.37
2022-09-11T03:52:53.262Z,22.63
2022-09-11T03:55:23.076Z,22.57
2022-09-11T03:57:51.166Z,20.90
2022-09-11T04:00:19.115Z,20.90
2022-09-11T04:02:46.873Z,21.60
2022-09-11T04:05:14.861Z,22.20
2022-09-11T04:07:42.647Z,21.50
2022-09-11T04:10:12.333Z,22.63
2022-09-11T04:12:40.143Z,20.97
2022-09-11T04:15:08.906Z,21.43
2022-09-11T04:17:37.058Z,22.07
2022-09-11T04:20:05.294Z,22.80
2022-09-11T04:22:33.082Z,21.40
2022-09-11T04:25:02.281Z,22.67
2022-09-11T04:27:32.035Z,22.00
2022-09-11T04:29:59.940Z,22.40
2022-09-11T04:32:28.381Z,21.60
2022-09-11T04:34:56.377Z,19.70
2022-09-11T04:37:24.134Z,20.10
2022-09-11T04:39:51.904Z,19.27
2022-09-11T04:42:19.817Z,19.27
2022-09-11T04:44:49.047Z,21.47
2022-09-11T04:47:17.261Z,20.60
2022-09-11T04:49:46.825Z,20.60
2022-09-11T04:52:15.263Z,20.77
2022-09-11T04:54:43.306Z,21.20
2022-09-11T04:57:11.008Z,22.83
2022-09-11T04:59:38.997Z,20.83
2022-09-11T05:02:08.456Z,19.07
2022-09-11T05:04:36.473Z,20.37
2022-09-11T05:07:04.674Z,21.43
2022-09-11T05:09:32.895Z,21.13
2022-09-11T05:12:02.150Z,21.40
2022-09-11T05:14:30.101Z,20.50
2022-09-11T05:16:57.894Z,21.37
2022-09-11T05:19:27.154Z,20.93
2022-09-11T05:21:55.046Z,20.50
2022-09-11T05:24:22.815Z,21.67
2022-09-11T05:26:50.583Z,22.47
2022-09-11T05:29:19.655Z,24.47
2022-09-11T05:31:47.707Z,25.00
2022-09-11T05:34:15.557Z,26.07
2022-09-11T05:36:46.052Z,24.07
2022-09-11T05:39:13.859Z,24.30
2022-09-11T05:41:41.728Z,23.43
2022-09-11T05:44:09.456Z,23.83
2022-09-11T05:46:37.561Z,23.83
2022-09-11T05:49:05.662Z,23.30
2022-09-11T05:51:35.799Z,23.43
2022-09-11T05:54:05.461Z,22.60
2022-09-11T05:56:33.228Z,24.30
2022-09-11T05:59:02.337Z,24.73
2022-09-11T06:01:31.124Z,25.27
2022-09-11T06:03:59.218Z,24.97
2022-09-11T06:06:27.642Z,25.93
2022-09-11T06:08:55.985Z,25.50
2022-09-11T06:11:25.203Z,26.63
2022-09-11T06:13:53.143Z,25.97
2022-09-11T06:16:23.521Z,27.03
2022-09-11T06:18:53.215Z,30.93
2022-09-11T06:21:22.477Z,32.67
2022-09-11T06:23:51.984Z,33.93
2022-09-11T06:26:22.449Z,30.53
2022-09-11T06:28:52.776Z,31.40
2022-09-11T06:31:22.505Z,34.80
2022-09-11T06:33:51.068Z,33.63
2022-09-11T06:36:20.273Z,32.57
2022-09-11T06:38:53.277Z,35.90
2022-09-11T06:41:21.007Z,36.63
2022-09-11T06:43:49.269Z,35.27
2022-09-11T06:46:20.031Z,38.93
2022-09-11T06:48:49.653Z,42.13
2022-09-11T06:51:19.439Z,39.10
2022-09-11T06:53:48.642Z,36.90
2022-09-11T06:56:18.853Z,39.20
2022-09-11T06:58:47.086Z,34.43
2022-09-11T07:01:16.567Z,30.37
2022-09-11T07:03:47.373Z,29.07
2022-09-11T07:06:16.562Z,29.93
2022-09-11T07:08:44.679Z,30.77
2022-09-11T07:11:13.278Z,29.30
2022-09-11T07:13:42.068Z,27.77
2022-09-11T07:16:12.691Z,26.03
2022-09-11T07:18:42.266Z,23.73
2022-09-11T07:21:14.066Z,22.87
2022-09-11T07:23:43.039Z,24.53
2022-09-11T07:26:13.679Z,25.57
2022-09-11T07:28:41.899Z,24.20
2022-09-11T07:31:11.692Z,25.33
2022-09-11T07:33:40.071Z,24.90
2022-09-11T07:36:12.137Z,27.27
2022-09-11T07:38:42.759Z,25.25
2022-09-11T07:41:11.706Z,25.45
2022-09-11T07:43:40.796Z,25.90
2022-09-11T07:46:11.350Z,25.33
2022-09-11T07:48:40.852Z,27.93
2022-09-11T07:51:11.572Z,26.73
2022-09-11T07:53:42.723Z,25.23
2022-09-11T07:56:13.055Z,25.95
2022-09-11T07:58:42.738Z,27.63
2022-09-11T08:01:12.715Z,32.93
2022-09-11T08:03:40.626Z,38.80
2022-09-11T08:06:10.705Z,29.93
2022-09-11T08:08:38.641Z,24.50
2022-09-11T08:11:10.602Z,22.45
2022-09-11T08:13:39.031Z,23.30
2022-09-11T08:16:08.057Z,23.47
2022-09-11T08:18:37.190Z,27.13
2022-09-11T08:21:12.574Z,27.60
2022-09-11T08:23:42.700Z,29.13
2022-09-11T08:26:14.245Z,31.57
2022-09-11T08:28:46.893Z,30.77
2022-09-11T08:31:14.994Z,24.80
2022-09-11T08:33:42.984Z,24.87
2022-09-11T08:36:14.673Z,24.00
2022-09-11T08:38:42.905Z,22.57
2022-09-11T08:41:22.311Z,21.58
2022-09-11T08:43:56.725Z,21.58
2022-09-11T08:46:27.951Z,21.20
2022-09-11T08:49:03.531Z,21.40
2022-09-11T08:51:32.348Z,22.05
2022-09-11T08:54:02.415Z,21.67
2022-09-11T08:56:33.709Z,22.00
2022-09-11T08:59:20.321Z,21.13
2022-09-11T09:02:00.692Z,21.23
2022-09-11T09:04:42.052Z,22.30
2022-09-11T09:07:20.108Z,23.90
2022-09-11T09:10:00.607Z,22.63
2022-09-11T09:12:39.846Z,21.83
2022-09-11T09:15:20.323Z,23.23
2022-09-11T09:17:53.885Z,23.83
2022-09-11T09:20:27.171Z,25.13
2022-09-11T09:23:00.174Z,22.90
2022-09-11T09:25:28.869Z,20.90
2022-09-11T09:28:04.863Z,22.93
2022-09-11T09:30:41.856Z,23.70
2022-09-11T09:33:25.882Z,22.52
2022-09-11T09:35:54.389Z,23.23
2022-09-11T09:38:26.851Z,23.83
2022-09-11T09:41:05.234Z,23.67
2022-09-11T09:43:48.330Z,22.35
2022-09-11T09:46:24.989Z,22.80
2022-09-11T09:48:53.000Z,22.75
2022-09-11T09:51:20.747Z,22.52
2022-09-11T09:53:53.046Z,22.73
2022-09-11T09:56:23.751Z,21.30
2022-09-11T09:59:01.131Z,23.55
2022-09-11T10:01:45.406Z,23.75
2022-09-11T10:04:17.245Z,23.55
2022-09-11T10:06:46.564Z,30.57
2022-09-11T10:09:24.568Z,29.23
2022-09-11T10:11:55.934Z,30.03
2022-09-11T10:14:49.770Z,29.97
2022-09-11T10:17:21.325Z,29.53
2022-09-11T10:19:49.200Z,30.30
2022-09-11T10:22:29.074Z,32.15
2022-09-11T10:25:12.449Z,31.45
2022-09-11T10:27:46.375Z,31.17
2022-09-11T10:30:36.420Z,29.52
2022-09-11T10:33:08.205Z,28.70
2022-09-11T10:35:37.855Z,29.33
2022-09-11T10:38:18.936Z,29.75
2022-09-11T10:41:15.935Z,31.58
2022-09-11T10:43:48.688Z,30.50
2022-09-11T10:46:26.381Z,34.30
2022-09-11T10:48:58.391Z,34.20
2022-09-11T10:51:27.713Z,35.03
2022-09-11T10:54:05.642Z,36.50
2022-09-11T10:56:39.334Z,34.75
2022-09-11T10:59:18.036Z,34.08
2022-09-11T11:01:47.396Z,35.88
2022-09-11T11:04:15.251Z,35.08
2022-09-11T11:06:59.653Z,35.25
2022-09-11T11:09:39.899Z,35.13
2022-09-11T11:12:21.737Z,33.97
2022-09-11T11:15:20.174Z,33.28
2022-09-11T11:17:58.757Z,33.35
2022-09-11T11:20:35.507Z,33.05
2022-09-11T11:23:25.451Z,35.10
2022-09-11T11:26:05.567Z,35.88
2022-09-11T11:29:03.197Z,34.80
2022-09-11T11:31:52.667Z,31.80
2022-09-11T11:34:39.914Z,31.15
2022-09-11T11:37:13.266Z,31.83
2022-09-11T11:39:49.193Z,30.80
2022-09-11T11:42:24.420Z,30.30
2022-09-11T11:44:55.333Z,29.50
2022-09-11T11:47:30.021Z,29.65
2022-09-11T11:50:07.182Z,31.63
2022-09-11T11:52:46.271Z,30.17
2022-09-11T11:55:22.455Z,27.30
2022-09-11T11:57:58.745Z,27.08
2022-09-11T12:00:30.011Z,26.25
2022-09-11T12:03:03.365Z,25.20
2022-09-11T12:05:35.050Z,23.30
2022-09-11T12:08:03.612Z,25.13
2022-09-11T12:10:34.685Z,25.13
2022-09-11T12:13:06.767Z,24.55
2022-09-11T12:15:35.931Z,24.33
2022-09-11T12:18:05.543Z,25.13
2022-09-11T12:20:40.665Z,26.17
2022-09-11T12:23:35.953Z,26.23
2022-09-11T12:26:22.217Z,26.60
2022-09-11T12:28:50.728Z,25.83
2022-09-11T12:31:19.469Z,25.02
2022-09-11T12:33:55.595Z,25.50
2022-09-11T12:36:49.658Z,25.23
2022-09-11T12:39:25.446Z,23.13
2022-09-11T12:41:53.421Z,26.00
2022-09-11T12:44:32.654Z,24.83
2022-09-11T12:47:16.832Z,23.33
2022-09-11T12:49:54.760Z,22.20
2022-09-11T12:52:35.904Z,22.38
2022-09-11T12:55:22.735Z,23.67
2022-09-11T12:57:52.252Z,24.70
2022-09-11T13:00:24.532Z,21.40
2022-09-11T13:02:56.946Z,21.20
2022-09-11T13:05:28.344Z,21.15
2022-09-11T13:08:00.892Z,22.00
2022-09-11T13:10:36.368Z,21.95
2022-09-11T13:13:06.492Z,22.08
2022-09-11T13:15:40.981Z,20.60
2022-09-11T13:18:32.258Z,21.35
2022-09-11T13:21:02.518Z,20.08
2022-09-11T13:23:32.815Z,19.08
2022-09-11T13:26:02.861Z,19.13
2022-09-11T13:28:32.136Z,18.20
2022-09-11T13:31:05.091Z,18.40
2022-09-11T13:33:33.803Z,18.05
2022-09-11T13:36:06.113Z,19.35
2022-09-11T13:38:37.416Z,19.75
2022-09-11T13:41:09.072Z,19.20
2022-09-11T13:43:40.128Z,18.52
2022-09-11T13:46:26.860Z,19.27
2022-09-11T13:48:59.267Z,17.85
2022-09-11T13:51:31.265Z,19.08
2022-09-11T13:54:10.197Z,19.17
2022-09-11T13:59:47.633Z,17.38
2022-09-11T14:02:49.480Z,17.92
2022-09-11T14:05:21.978Z,15.43
2022-09-11T14:07:59.969Z,15.15
2022-09-11T14:10:32.533Z,13.70
2022-09-11T14:13:06.501Z,13.68
2022-09-11T14:15:41.048Z,13.52
2022-09-11T14:18:15.140Z,12.65
2022-09-11T14:20:45.919Z,14.18
2022-09-11T14:23:21.144Z,12.40
2022-09-11T14:26:12.617Z,12.38
2022-09-11T14:28:50.436Z,10.85
2022-09-11T14:31:30.286Z,12.10
2022-09-11T14:34:12.680Z,11.05
2022-09-11T14:36:44.171Z,9.90
2022-09-11T14:39:16.702Z,9.77
2022-09-11T14:41:46.623Z,8.75
2022-09-11T14:44:15.724Z,9.00
2022-09-11T14:46:43.985Z,7.95
2022-09-11T14:49:12.934Z,9.50
2022-09-11T14:51:42.399Z,9.43
2022-09-11T14:54:15.877Z,9.02
2022-09-11T14:56:46.604Z,7.45
2022-09-11T14:59:14.417Z,7.93
2022-09-11T15:01:42.864Z,7.43
2022-09-11T15:04:17.030Z,8.57
2022-09-11T15:06:44.957Z,7.60
2022-09-11T15:09:12.751Z,7.93
2022-09-11T15:11:41.632Z,8.18
2022-09-11T15:14:23.359Z,8.20
2022-09-11T15:17:02.025Z,8.60
2022-09-11T15:19:30.836Z,7.60
2022-09-11T15:21:59.117Z,7.63
2022-09-11T15:24:27.366Z,7.78
2022-09-11T15:26:55.474Z,8.18
2022-09-11T15:29:30.760Z,8.25
2022-09-11T15:32:01.267Z,7.68
2022-09-11T15:34:33.207Z,7.60
2022-09-11T15:37:01.201Z,7.70
2022-09-11T15:39:29.302Z,6.60
2022-09-11T15:41:57.851Z,6.93
2022-09-11T15:44:28.706Z,6.97
2022-09-11T15:46:58.626Z,6.28
2022-09-11T15:49:28.981Z,6.93
2022-09-11T15:51:58.367Z,5.90
2022-09-11T15:54:26.775Z,5.95
2022-09-11T15:56:54.736Z,6.07
2022-09-11T15:59:22.683Z,6.63
2022-09-11T16:01:51.985Z,6.28
2022-09-11T16:04:22.888Z,6.30
2022-09-11T16:06:52.135Z,6.28
2022-09-11T16:09:21.961Z,6.65
2022-09-11T16:11:50.371Z,6.57
2022-09-11T16:14:19.024Z,6.40
2022-09-11T16:16:48.093Z,6.82
2022-09-11T16:19:18.557Z,6.05
2022-09-11T16:21:46.659Z,6.05
2022-09-11T16:24:15.500Z,5.63
2022-09-11T16:26:44.162Z,5.88
2022-09-11T16:29:14.692Z,5.93
2022-09-11T16:31:43.628Z,6.30
2022-09-11T16:34:12.101Z,5.68
2022-09-11T16:36:42.574Z,6.32
2022-09-11T16:39:12.983Z,6.15
2022-09-11T16:41:41.247Z,5.90
2022-09-11T16:44:11.987Z,5.72
2022-09-11T16:46:40.792Z,7.20
2022-09-11T16:49:09.010Z,6.30
2022-09-11T16:51:37.295Z,7.95
2022-09-11T16:54:07.809Z,7.88
2022-09-11T16:56:35.683Z,6.95
2022-09-11T16:59:03.618Z,6.95
2022-09-11T17:01:31.749Z,6.80
2022-09-11T17:03:59.591Z,6.75
2022-09-11T17:06:30.184Z,5.70
2022-09-11T17:09:00.258Z,6.38
2022-09-11T17:11:31.452Z,6.57
2022-09-11T17:14:01.876Z,6.25
2022-09-11T17:16:32.257Z,6.55
2022-09-11T17:19:01.717Z,6.75
2022-09-11T17:21:35.729Z,6.32
2022-09-11T17:24:05.153Z,6.40
2022-09-11T17:26:35.637Z,6.72
2022-09-11T17:29:04.710Z,6.40
2022-09-11T17:31:32.956Z,6.07
2022-09-11T17:34:01.095Z,6.40
2022-09-11T17:36:29.284Z,6.25
2022-09-11T17:38:59.458Z,5.68
2022-09-11T17:41:27.274Z,5.90
2022-09-11T17:43:56.716Z,6.03
2022-09-11T17:46:25.535Z,6.30
2022-09-11T17:48:53.420Z,6.57
2022-09-11T17:51:24.655Z,6.72
2022-09-11T17:53:55.387Z,6.40
2022-09-11T17:56:25.856Z,6.28
2022-09-11T17:58:56.723Z,6.72
2022-09-11T18:01:26.043Z,6.55
2022-09-11T18:03:54.868Z,6.30
2022-09-11T18:06:27.843Z,13.18
2022-09-11T18:08:56.707Z,7.03
2022-09-11T18:11:24.706Z,7.00
2022-09-11T18:13:53.051Z,7.32
2022-09-11T18:16:22.451Z,6.10
2022-09-11T18:18:50.426Z,6.13
2022-09-11T18:21:18.214Z,6.85
2022-09-11T18:23:46.588Z,6.53
2022-09-11T18:26:22.006Z,6.97
2022-09-11T18:28:49.989Z,6.70
2022-09-11T18:31:18.310Z,7.30
2022-09-11T18:33:54.596Z,6.82
2022-09-11T18:36:23.505Z,7.00
2022-09-11T18:38:51.735Z,7.20
2022-09-11T18:41:20.188Z,6.80
2022-09-11T18:43:47.997Z,7.15
2022-09-11T18:46:16.388Z,7.05
2022-09-11T18:48:45.054Z,7.55
2022-09-11T18:51:15.296Z,7.00
2022-09-11T18:53:43.929Z,7.57
2022-09-11T18:56:12.485Z,6.72
2022-09-11T18:58:41.832Z,7.38
2022-09-11T19:01:11.522Z,6.88
2022-09-11T19:03:41.783Z,7.32
2022-09-11T19:06:12.110Z,7.03
2022-09-11T19:08:43.388Z,7.70
2022-09-11T19:11:13.330Z,7.85
2022-09-11T19:13:42.242Z,7.45
2022-09-11T19:16:10.936Z,8.05
2022-09-11T19:18:40.130Z,7.72
2022-09-11T19:21:10.278Z,7.47
2022-09-11T19:23:40.220Z,7.90
2022-09-11T19:26:12.192Z,8.32
2022-09-11T19:28:42.193Z,7.63
2022-09-11T19:31:12.122Z,9.30
2022-09-11T19:33:40.663Z,8.88
2022-09-11T19:36:12.356Z,8.05
2022-09-11T19:38:42.010Z,8.18
2022-09-11T19:41:14.091Z,8.40
2022-09-11T19:43:43.154Z,8.32
2022-09-11T19:46:12.946Z,8.55
2022-09-11T19:48:41.562Z,8.65
2022-09-11T19:51:10.761Z,9.38
2022-09-11T19:53:39.199Z,9.88
2022-09-11T19:56:07.425Z,9.65
2022-09-11T19:58:38.780Z,10.27
2022-09-11T20:01:08.980Z,9.60
2022-09-11T20:03:38.499Z,9.48
2022-09-11T20:06:06.817Z,9.40
2022-09-11T20:08:36.097Z,9.93
2022-09-11T20:11:06.364Z,9.40
2022-09-11T20:13:36.909Z,10.60
2022-09-11T20:16:05.677Z,10.20
2022-09-11T20:18:33.635Z,10.65
2022-09-11T20:21:03.063Z,10.38
2022-09-11T20:23:30.827Z,10.10
2022-09-11T20:26:08.378Z,10.52
2022-09-11T20:28:37.688Z,9.88
2022-09-11T20:31:13.725Z,10.52
2022-09-11T20:33:41.877Z,12.73
2022-09-11T20:36:10.161Z,10.73
2022-09-11T20:38:37.897Z,10.65
2022-09-11T20:41:07.807Z,10.88
2022-09-11T20:43:37.071Z,10.57
2022-09-11T20:46:05.782Z,10.70
2022-09-11T20:48:33.972Z,10.88
2022-09-11T20:51:06.560Z,12.52
2022-09-11T20:53:34.324Z,11.50
2022-09-11T20:56:03.416Z,11.88
2022-09-11T20:58:31.223Z,12.30
2022-09-11T21:01:00.871Z,11.85
2022-09-11T21:03:29.645Z,12.23
2022-09-11T21:05:57.543Z,12.02
2022-09-11T21:08:26.380Z,11.02
2022-09-11T21:10:54.163Z,12.10
2022-09-11T21:13:21.946Z,12.45
2022-09-11T21:15:49.689Z,12.15
2022-09-11T21:18:18.773Z,13.32
2022-09-11T21:20:54.084Z,12.75
2022-09-11T21:23:21.927Z,12.75
2022-09-11T21:25:52.656Z,12.13
2022-09-11T21:28:21.100Z,11.67
2022-09-11T21:30:49.137Z,12.68
2022-09-11T21:33:18.855Z,13.97
2022-09-11T21:35:52.368Z,13.20
2022-09-11T21:38:20.903Z,13.13
2022-09-11T21:40:48.826Z,13.27
2022-09-11T21:43:16.675Z,12.73
2022-09-11T21:45:44.429Z,12.68
2022-09-11T21:48:14.745Z,12.93
2022-09-11T21:50:44.184Z,13.73
2022-09-11T21:53:12.797Z,12.73
2022-09-11T21:55:41.024Z,13.40
2022-09-11T21:58:09.183Z,13.27
2022-09-11T22:00:42.777Z,13.60
2022-09-11T22:03:12.571Z,13.60
2022-09-11T22:05:43.394Z,13.40
2022-09-11T22:08:13.781Z,12.97
2022-09-11T22:10:42.977Z,13.27
2022-09-11T22:13:13.827Z,12.80
2022-09-11T22:15:41.853Z,12.60
2022-09-11T22:18:09.952Z,12.87
2022-09-11T22:20:38.512Z,13.33
2022-09-11T22:23:06.949Z,12.30
2022-09-11T22:25:36.901Z,12.17
2022-09-11T22:28:04.855Z,12.97
2022-09-11T22:30:33.446Z,13.20
2022-09-11T22:33:01.458Z,12.93
2022-09-11T22:35:29.754Z,14.33
2022-09-11T22:37:57.431Z,13.57
2022-09-11T22:40:25.208Z,13.40
2022-09-11T22:42:54.349Z,13.00
2022-09-11T22:45:22.153Z,13.53
2022-09-11T22:47:49.948Z,12.80
2022-09-11T22:50:17.938Z,13.30
2022-09-11T22:52:45.767Z,13.73
2022-09-11T22:55:13.468Z,13.20
2022-09-11T22:57:41.311Z,13.17
2022-09-11T23:00:14.392Z,12.27
2022-09-11T23:02:42.518Z,13.03
2022-09-11T23:05:28.348Z,12.97
2022-09-11T23:07:56.028Z,13.43
2022-09-11T23:10:25.043Z,13.63
2022-09-11T23:12:53.550Z,14.93
2022-09-11T23:15:22.913Z,15.33
2022-09-11T23:17:50.609Z,14.40
2022-09-11T23:20:19.127Z,14.07
2022-09-11T23:22:46.890Z,14.23
2022-09-11T23:25:14.840Z,14.30
2022-09-11T23:27:45.335Z,14.57
2022-09-11T23:30:13.541Z,14.60
2022-09-11T23:32:42.629Z,14.90
2022-09-11T23:35:10.780Z,13.57
2022-09-11T23:37:43.524Z,14.50
2022-09-11T23:40:13.168Z,13.60
2022-09-11T23:42:40.976Z,13.97
2022-09-11T23:45:13.522Z,13.57
2022-09-11T23:47:42.637Z,14.70
2022-09-11T23:50:10.718Z,13.37
2022-09-11T23:52:39.511Z,14.40
2022-09-11T23:55:08.350Z,14.00
2022-09-11T23:57:36.168Z,14.50
